Oak Leaf, Texas
Current Conditions -  °F | °C
As of 3:55 AM on Monday 22 Dec 2014 (Local Time) from KJWY Reporting Station
Overcast Overcast  
Wind Chill: 54°   Ceiling: 1700
Heat Index: 54°   Visibility: 10mi
Dew Point: 51°   Wind: 18mph
Humidity: 91%   Direction: 190°S
Pressure: 29.63"   Gusts: 25mph
Location:  32.515°N, 96.8153°W
Report Text: KJWY 220955Z AUTO 19016G22KT 10SM OVC017 12/11 A2963 RMK AO2 T01200105
Loading
Personal Weather Stations






























Interactive Weather Map New forecast layout! Learn more

10-Day Weather Forecast

Advertisements
Track Severe Weather on mobile